Home > Products > Valid Products > TAF

000
FTUS43 KIND 260800 AAA
TAFIND
TAF AMD
KIND 260805Z 2608/2712 36003KT P6SM OVC014
     FM261400 06005KT P6SM BKN020 BKN100
     FM270300 02004KT P6SM SCT020 OVC080=



000
FTUS43 KIND 260500
TAFIND
TAF
KIND 260526Z 2606/2712 29005KT P6SM OVC015
     FM261400 06005KT P6SM BKN020 BKN100
     FM270300 02004KT P6SM SCT020 OVC080=



000
FTUS43 KIND 260500
TAFLAF
TAF
KLAF 260526Z 2606/2706 24003KT P6SM OVC015
     FM261300 07005KT P6SM BKN020 BKN100
     FM270300 02004KT P6SM SCT020 OVC080
      AMD LTD TO CLD VIS AND WIND TIL 261400=



000
FTUS43 KIND 260200 AAA
TAFIND
TAF AMD
KIND 260227Z 2602/2706 31005KT P6SM OVC018
     FM261700 06005KT P6SM OVC020=



000
FTUS43 KIND 252300
TAFLAF
TAF
KLAF 252324Z 2600/2624 30005KT P6SM OVC018
     FM261700 07005KT P6SM OVC020
      AMD LTD TO CLD VIS AND WIND 2602/2614=



000
FTUS43 KIND 252300
TAFIND
TAF
KIND 252324Z 2600/2706 31005KT P6SM OVC018
     FM261700 06005KT P6SM OVC020=



000
FTUS43 KIND 252000 AAB
TAFIND
TAF AMD
KIND 252020Z 2520/2624 27012G18KT P6SM OVC015
     FM252200 28006KT P6SM OVC020
     FM260300 VRB03KT P6SM OVC020
     FM261500 10005KT P6SM SCT025 OVC150=



000
FTUS43 KIND 251900 AAA
TAFLAF
TAF AMD
KLAF 251912Z 2519/2618 28010KT P6SM OVC015
     FM252200 28006KT P6SM OVC020
     FM260300 VRB03KT P6SM SCT020 OVC150
     FM261200 10004KT P6SM SCT025 OVC150=



000
FTUS43 KIND 251900 AAA
TAFIND
TAF AMD
KIND 251912Z 2519/2624 27012G18KT P6SM OVC015
     FM252200 28006KT P6SM OVC020
     FM260300 VRB03KT P6SM OVC020
     FM261500 10005KT P6SM SCT025 OVC150=



000
FTUS43 KIND 251700
TAFLAF
TAF
KLAF 251720Z 2518/2618 29010KT P6SM OVC020
     FM252200 28006KT P6SM OVC020
     FM260300 VRB03KT P6SM SCT020 OVC150
     FM261200 10004KT P6SM SCT025 OVC150=



000
FTUS43 KIND 251700
TAFIND
TAF
KIND 251720Z 2518/2624 28012KT P6SM OVC020
     FM252200 28006KT P6SM OVC020
     FM260300 VRB03KT P6SM OVC020
     FM261500 10005KT P6SM SCT025 OVC150=



000
FTUS43 KIND 251600 AAB
TAFIND
TAF AMD
KIND 251638Z 2517/2618 27012KT P6SM OVC020
     FM252300 28006KT P6SM SCT250
     FM260600 11003KT P6SM BKN150=



000
FTUS43 KIND 251600 AAB
TAFIND
TAF AMD
KIND 251638Z 2517/2618 27012KT P6SM OVC020
     FM252300 28006KT P6SM SCT250
     FM260600 11003KT P6SM BKN150=



000
FTUS43 KIND 251500 AAB
TAFLAF
TAF AMD
KLAF 251557Z 2516/2612 28010KT P6SM OVC020
     FM252300 28003KT P6SM OVC080
     FM260600 11003KT P6SM BKN150=



000
FTUS43 KIND 251500 AAA
TAFIND
TAF AMD
KIND 251556Z 2516/2618 27012KT P6SM OVC025
     FM252300 28006KT P6SM SCT250
     FM260600 11003KT P6SM BKN150=



000
FTUS43 KIND 251400 AAA
TAFIND
TAF AMD
KIND 251426Z 2514/2618 27012KT P6SM OVC023
     FM251800 26011G16KT P6SM BKN035
     FM252300 28006KT P6SM SCT250
     FM260600 11003KT P6SM BKN150=



000
FTUS43 KIND 251300 AAA
TAFLAF
TAF AMD
KLAF 251326Z 2513/2612 27010G18KT P6SM OVC020
     FM251600 28009G15KT P6SM BKN035
     FM252300 28003KT P6SM SCT250
     FM260600 11003KT P6SM BKN150
      AMD LTD TO CLD VIS AND WIND TIL 251400=



000
FTUS43 KIND 251100
TAFIND
TAF
KIND 251123Z 2512/2618 26014KT P6SM OVC023
     FM251800 26011G16KT P6SM BKN035
     FM252300 28006KT P6SM SCT250
     FM260600 11003KT P6SM BKN150=



000
FTUS43 KIND 251100
TAFLAF
TAF
KLAF 251123Z 2512/2612 26016G23KT P6SM BKN020 OVC027
     FM251600 28009G15KT P6SM BKN035
     FM252300 28003KT P6SM SCT250
     FM260600 11003KT P6SM BKN150
      AMD LTD TO CLD VIS AND WIND TIL 251400=



000
FTUS43 KIND 250800 AAA
TAFIND
TAF AMD
KIND 250810Z 2508/2612 25014G22KT P6SM OVC027
     FM251200 27010G17KT P6SM OVC030
     FM251800 28010G16KT P6SM BKN040
     FM252300 28006KT P6SM SCT250=



000
FTUS43 KIND 250500
TAFLAF
TAF
KLAF 250520Z 2506/2606 26015G21KT P6SM OVC020
     FM251200 28009G17KT P6SM OVC025
     FM252000 28009G15KT P6SM BKN035
     FM252300 28003KT P6SM SCT250
      AMD LTD TO CLD VIS AND WIND TIL 251400=



000
FTUS43 KIND 250500
TAFLAF
TAF
KLAF 250520Z 2506/2606 25012G21KT P6SM OVC020
     FM251200 28009G17KT P6SM OVC025
     FM252000 28009G15KT P6SM BKN035
     FM252300 28003KT P6SM SCT250
      AMD LTD TO CLD VIS AND WIND TIL 251400=



000
FTUS43 KIND 250500
TAFIND
TAF
KIND 250520Z 2506/2612 26016G24KT P6SM OVC030
     FM251200 27010G17KT P6SM OVC030
     FM251800 28010G16KT P6SM BKN040
     FM252300 28006KT P6SM SCT250=



000
FTUS43 KIND 250200 AAA
TAFLAF
TAF AMD
KLAF 250211Z 2502/2524 26011KT P6SM OVC025
     FM251500 28009KT P6SM OVC030
      AMD LTD TO CLD VIS AND WIND TIL 251400=



000
FTUS43 KIND 250200 AAA
TAFIND
TAF AMD
KIND 250210Z 2502/2606 25014KT P6SM OVC035
     FM251200 27010KT P6SM OVC030=



000
FTUS43 KIND 242300 CCA
TAFIND
TAF COR
KIND 242348Z 2500/2606 25018G25KT P6SM OVC035
     FM250300 25012KT P6SM OVC030
     FM251500 27010KT P6SM OVC030=



000
FTUS43 KIND 242300
TAFLAF
TAF
KLAF 242320Z 2500/2524 26016G25KT P6SM OVC030
     FM250400 26011KT P6SM OVC025
     FM251500 28009KT P6SM OVC030
      AMD LTD TO CLD VIS AND WIND 2502/2514=



000
FTUS43 KIND 242300
TAFIND
TAF
KIND 242320Z 2500/2606 25018G25KT P6SM OVC030
     FM250300 25012KT P6SM OVC030
     FM251500 27010KT P6SM OVC030=



000
FTUS43 KIND 242200 AAB
TAFLAF
TAF AMD
KLAF 242219Z 2422/2518 25022G32KT 6SM -SHSN OVC025
     FM242300 26016G25KT P6SM OVC025
     FM250300 25010KT P6SM OVC030
     FM251500 28008KT P6SM OVC030=



000
FTUS43 KIND 242200 AAA
TAFIND
TAF AMD
KIND 242219Z 2422/2524 25018G25KT P6SM SCT025 OVC035
     FM250400 25012KT P6SM OVC030
     FM251500 27010KT P6SM OVC030=



000
FTUS43 KIND 242000 AAB
TAFIND
TAF AMD
KIND 242005Z 2420/2524 24024G34KT 6SM -SN OVC015
     FM242300 25018G25KT P6SM OVC030
     FM250400 25012KT P6SM OVC030
     FM251500 27010KT P6SM OVC030=



000
FTUS43 KIND 242000 AAA
TAFLAF
TAF AMD
KLAF 242000Z 2420/2518 25022G32KT 6SM -SHSN OVC015
     FM242300 26016G25KT P6SM OVC025
     FM250300 25010KT P6SM OVC030
     FM251500 28008KT P6SM OVC030=



000
FTUS43 KIND 241800 AAA
TAFIND
TAF AMD
KIND 241800Z 2418/2524 25024G34KT P6SM OVC015
      TEMPO 2418/2422 -RASN
     FM242300 25018G25KT P6SM OVC030
     FM250400 25012KT P6SM OVC030
     FM251500 27010KT P6SM OVC030=



000
FTUS43 KIND 241700
TAFIND
TAF
KIND 241720Z 2418/2524 25030G40KT P6SM OVC020
      TEMPO 2418/2422 -SHSN
     FM242300 25018G25KT P6SM OVC030
     FM250400 25012KT P6SM OVC030
     FM251500 27010KT P6SM OVC030=



000
FTUS43 KIND 241700
TAFLAF
TAF
KLAF 241720Z 2418/2518 25022G32KT P6SM -SHSN OVC020
     FM242300 26016G25KT P6SM OVC025
     FM250300 25010KT P6SM OVC030
     FM251500 28008KT P6SM OVC030=



000
FTUS43 KIND 241400 AAA
TAFIND
TAF AMD
KIND 241420Z 2414/2518 26022G34KT P6SM VCSH BKN015 OVC025
     FM241600 25025G38KT P6SM BKN025 OVC035
     FM242300 25018G25KT P6SM BKN030
     FM250400 25012KT P6SM BKN030=



000
FTUS43 KIND 241100
TAFIND
TAF
KIND 241133Z 2412/2518 21017G28KT P6SM -SHRA VCTS BKN020CB OVC035
     FM241400 23020G32KT 6SM -SHRA BR BKN020 OVC030
     FM241600 25025G38KT P6SM BKN025 OVC035
     FM242300 25018G25KT P6SM BKN030
     FM250400 25012KT P6SM BKN030=



000
FTUS43 KIND 241100
TAFLAF
TAF
KLAF 241133Z 2412/2512 21014G22KT 5SM -SHRA BR BKN020 OVC035
     FM241400 25017G28KT 6SM -SHRA BR BKN015 OVC030
     FM241600 25024G34KT P6SM BKN025 OVC035
     FM242300 26018G25KT P6SM OVC025
     FM250300 25013KT P6SM OVC025
      AMD LTD TO CLD VIS AND WIND TIL 241400=



000
FTUS43 KIND 241000 AAA
TAFIND
TAF AMD
KIND 241031Z 2411/2512 21020G28KT P6SM -SHRA VCTS SCT012CB OVC018
      TEMPO 2411/2413 3SM TSRA BKN012CB
     FM241300 23020G32KT P6SM VCSH OVC015
     FM241700 24025G38KT P6SM OVC030
     FM242300 24018G25KT P6SM BKN050=



000
FTUS43 KIND 240800 AAA
TAFIND
TAF AMD
KIND 240831Z 2409/2512 21020G28KT P6SM -SHRA OVC012
     FM241300 23020G32KT P6SM VCSH OVC015
     FM241700 24025G38KT P6SM OVC030
     FM242300 24018G25KT P6SM BKN050=



000
FTUS43 KIND 240500
TAFIND
TAF
KIND 240537Z 2406/2512 21015G21KT 6SM -SHRA BR BKN009 OVC015
      TEMPO 2409/2413 SCT009 OVC015
     FM241300 23020G32KT P6SM VCSH OVC015
     FM241700 24025G38KT P6SM OVC030
     FM242300 24018G25KT P6SM BKN050=



000
FTUS43 KIND 240500
TAFLAF
TAF
KLAF 240537Z 2406/2506 22011KT 5SM RA BR OVC007
     FM241400 25018G28KT 6SM BR VCSH OVC012
     FM241800 26024G35KT P6SM OVC030
     FM250000 26014G21KT P6SM BKN050
      AMD LTD TO CLD VIS AND WIND TIL 241400=



000
FTUS43 KIND 240500
TAFLAF
TAF
KLAF 240520Z 2406/2506 22011KT 5SM RA BR OVC006
     FM241400 25018G28KT 6SM BR VCSH OVC012
     FM241800 26024G35KT P6SM OVC030
     FM250000 26014G21KT P6SM BKN050
      AMD LTD TO CLD VIS AND WIND TIL 241400=



000
FTUS43 KIND 240500
TAFIND
TAF
KIND 240520Z 2406/2512 20015G21KT 6SM -SHRA BR BKN009 OVC015
      TEMPO 2409/2413 SCT009 OVC015
     FM241300 23020G32KT P6SM VCSH OVC015
     FM241700 24025G38KT P6SM OVC030
     FM242300 24018G25KT P6SM BKN050=



000
FTUS43 KIND 240200 AAA
TAFIND
TAF AMD
KIND 240225Z 2402/2506 14015KT 3SM RA BR OVC007
     FM240500 21015KT 3SM RA BR OVC007
     FM241300 23020G32KT 6SM -SHRA BR OVC015
     FM241700 24025G38KT P6SM OVC030
     FM250000 24018G25KT P6SM BKN050=



000
FTUS43 KIND 232300
TAFIND
TAF
KIND 232320Z 2400/2506 14015KT 3SM RA BR OVC007
     FM240500 21015KT 3SM RA BR OVC007
     FM241300 23020G32KT 6SM -SHRA BR OVC015
     FM241700 24025G38KT P6SM OVC030
     FM250000 24018G25KT P6SM BKN050=



000
FTUS43 KIND 232300
TAFLAF
TAF
KLAF 232320Z 2400/2424 13009KT 3SM RA BR OVC008
     FM240400 22011KT 3SM RA BR OVC005
     FM241400 25018G28KT 6SM -SHRA BR OVC015
     FM241800 26024G35KT P6SM OVC030
      AMD LTD TO CLD VIS AND WIND 2402/2414=



000
FTUS43 KIND 232000 AAB
TAFLAF
TAF AMD
KLAF 232026Z 2320/2418 14010KT 3SM -SHRA BR OVC005
     FM232200 14012KT 3SM -SHRA BR OVC005
     FM240300 19013G20KT 3SM -SHRA BR OVC006
     FM241600 24020G30KT P6SM OVC030=



000
FTUS43 KIND 232000 AAA
TAFIND
TAF AMD
KIND 232025Z 2320/2424 12013KT 4SM -SHRA BR SCT008 OVC020
     FM232200 14012KT 3SM -SHRA BR OVC007
     FM240200 19015G22KT 3SM -SHRA BR OVC006
     FM241300 25020G32KT 5SM -SHRA OVC015
     FM241600 24025G35KT P6SM OVC030=



000
FTUS43 KIND 231900 AAA
TAFLAF
TAF AMD
KLAF 231926Z 2319/2418 14010KT 4SM -SHRA BR OVC020
      TEMPO 2319/2322 BKN009
     FM232200 14012KT 3SM -SHRA BR OVC007
     FM240300 19013G20KT 3SM -SHRA BR OVC006
     FM241600 24020G30KT P6SM OVC030=



000
FTUS43 KIND 231700
TAFLAF
TAF
KLAF 231735Z 2318/2418 14010KT 4SM -SHRA BR OVC020
     FM232200 14012KT 3SM -SHRA BR OVC007
     FM240300 19013G20KT 3SM -SHRA BR OVC006
     FM241600 24020G30KT P6SM OVC030=



000
FTUS43 KIND 231700
TAFIND
TAF
KIND 231735Z 2318/2424 13011KT 4SM -SHRA BR OVC020
     FM232200 14012KT 3SM -SHRA BR OVC007
     FM240200 19015G22KT 3SM -SHRA BR OVC006
     FM241300 25020G32KT 5SM -SHRA OVC015
     FM241600 24025G35KT P6SM OVC030=



000
FTUS43 KIND 231600 AAA
TAFIND
TAF AMD
KIND 231610Z 2316/2418 15009KT P6SM BKN050 OVC100
      TEMPO 2316/2318 3SM -SHRA BKN015 OVC035
     FM231900 13011KT 4SM -RA BR OVC018
     FM232200 14012KT 3SM RA BR OVC007
     FM240200 19015G22KT 3SM RA BR OVC006
     FM241300 25020G32KT 5SM -SHRA OVC015=



000
FTUS43 KIND 231600 AAA
TAFIND
TAF AMD
KIND 231610Z 2316/2418 15009KT P6SM BKN050 OVC100
      TEMPO 2316/2318 3SM -SHRA BKN015 OVC035
     FM231900 13011KT 4SM -RA BR OVC018
     FM232200 14012KT 3SM RA BR OVC007
     FM240200 19015G22KT 3SM RA BR OVC006
     FM241300 25020G32KT 5SM -SHRA OVC015=



000
FTUS43 KIND 231400 AAA
TAFIND
TAF AMD
KIND 231421Z 2314/2418 15009KT P6SM BKN050 OVC100
     FM231900 13011KT 4SM -RA BR OVC018
     FM232200 14012KT 3SM RA BR OVC007
     FM240200 19015G22KT 3SM RA BR OVC006
     FM241300 25020G32KT 5SM -SHRA OVC015=



000
FTUS43 KIND 231100
TAFIND
TAF
KIND 231130Z 2312/2418 15007KT P6SM VCSH BKN050 OVC100
      WS020/22045KT
     FM231500 15008KT P6SM BKN050 OVC100
     FM231900 13011KT 4SM -RA BR OVC018
     FM232200 14012KT 3SM RA BR OVC007
     FM240200 19015G22KT 3SM RA BR OVC006
     FM241300 25020G32KT 5SM -SHRA OVC015=



000
FTUS43 KIND 231100
TAFLAF
TAF
KLAF 231130Z 2312/2412 16007KT P6SM VCSH BKN050 OVC100
     FM231900 14010KT 4SM -RA BR OVC018
     FM232200 14012KT 3SM RA BR OVC007
     FM240300 19013G20KT 3SM RA BR OVC006
      AMD LTD TO CLD VIS AND WIND TIL 231400=



000
FTUS43 KIND 230900 AAA
TAFIND
TAF AMD
KIND 230901Z 2309/2412 15008KT P6SM VCSH OVC050
     FM231100 15008KT P6SM VCSH OVC035
     FM231700 12014KT 4SM -RA BR OVC018
     FM232200 16014KT 3SM -RA BR OVC007 WS012/21050KT=



    US Dept of Commerce
    National Oceanic and Atmospheric Administration
    National Weather Service
    1325 East West Highway
    Silver Spring, MD 20910
    Page Author: NWS Internet Services Team
Disclaimer
Information Quality
Credits
Glossary
Privacy Policy
Freedom of Information Act (FOIA)
About Us
Career Opportunities